sensor_id;sensor_type;location;lat;lon;timestamp;P1;durP1;ratioP1;P2;durP2;ratioP2
2944;SDS011;1482;51.398;7.128;2023-05-14T00:01:13;16.47;;;12.97;;
2944;SDS011;1482;51.398;7.128;2023-05-14T00:03:39;15.00;;;13.60;;
2944;SDS011;1482;51.398;7.128;2023-05-14T00:06:05;14.97;;;13.47;;
2944;SDS011;1482;51.398;7.128;2023-05-14T00:08:31;12.80;;;11.60;;
2944;SDS011;1482;51.398;7.128;2023-05-14T00:10:57;14.50;;;13.10;;
2944;SDS011;1482;51.398;7.128;2023-05-14T00:13:23;14.63;;;13.13;;
2944;SDS011;1482;51.398;7.128;2023-05-14T00:15:49;13.47;;;12.07;;
2944;SDS011;1482;51.398;7.128;2023-05-14T00:18:15;13.00;;;11.63;;
2944;SDS011;1482;51.398;7.128;2023-05-14T00:20:40;13.57;;;12.23;;
2944;SDS011;1482;51.398;7.128;2023-05-14T00:23:06;13.70;;;12.00;;
2944;SDS011;1482;51.398;7.128;2023-05-14T00:25:31;12.63;;;11.43;;
2944;SDS011;1482;51.398;7.128;2023-05-14T00:27:57;16.10;;;11.67;;
2944;SDS011;1482;51.398;7.128;2023-05-14T00:30:22;12.63;;;11.43;;
2944;SDS011;1482;51.398;7.128;2023-05-14T00:32:48;12.37;;;11.17;;
2944;SDS011;1482;51.398;7.128;2023-05-14T00:35:14;12.10;;;10.90;;
2944;SDS011;1482;51.398;7.128;2023-05-14T00:37:39;13.00;;;11.70;;
2944;SDS011;1482;51.398;7.128;2023-05-14T00:40:05;12.17;;;11.03;;
2944;SDS011;1482;51.398;7.128;2023-05-14T00:42:32;11.70;;;10.70;;
2944;SDS011;1482;51.398;7.128;2023-05-14T00:44:58;12.23;;;11.13;;
2944;SDS011;1482;51.398;7.128;2023-05-14T00:47:23;13.93;;;12.53;;
2944;SDS011;1482;51.398;7.128;2023-05-14T00:49:49;13.27;;;11.90;;
2944;SDS011;1482;51.398;7.128;2023-05-14T00:52:15;18.13;;;12.23;;
2944;SDS011;1482;51.398;7.128;2023-05-14T00:54:41;13.17;;;11.97;;
2944;SDS011;1482;51.398;7.128;2023-05-14T00:57:08;12.30;;;11.20;;
2944;SDS011;1482;51.398;7.128;2023-05-14T00:59:34;12.73;;;11.43;;
2944;SDS011;1482;51.398;7.128;2023-05-14T01:01:59;12.50;;;11.20;;
2944;SDS011;1482;51.398;7.128;2023-05-14T01:04:25;15.33;;;11.73;;
2944;SDS011;1482;51.398;7.128;2023-05-14T01:07:08;13.57;;;12.33;;
2944;SDS011;1482;51.398;7.128;2023-05-14T01:10:02;12.53;;;11.33;;
2944;SDS011;1482;51.398;7.128;2023-05-14T01:12:43;13.60;;;12.20;;
2944;SDS011;1482;51.398;7.128;2023-05-14T01:15:23;15.43;;;11.57;;
2944;SDS011;1482;51.398;7.128;2023-05-14T01:18:06;13.97;;;12.57;;
2944;SDS011;1482;51.398;7.128;2023-05-14T01:20:33;13.97;;;12.50;;
2944;SDS011;1482;51.398;7.128;2023-05-14T01:22:59;14.13;;;12.70;;
2944;SDS011;1482;51.398;7.128;2023-05-14T01:25:25;13.73;;;12.30;;
2944;SDS011;1482;51.398;7.128;2023-05-14T01:30:30;13.30;;;11.90;;
2944;SDS011;1482;51.398;7.128;2023-05-14T01:33:01;14.57;;;12.93;;
2944;SDS011;1482;51.398;7.128;2023-05-14T01:35:30;18.00;;;12.87;;
2944;SDS011;1482;51.398;7.128;2023-05-14T01:37:56;15.90;;;14.30;;
2944;SDS011;1482;51.398;7.128;2023-05-14T01:40:24;14.37;;;12.97;;
2944;SDS011;1482;51.398;7.128;2023-05-14T01:42:50;15.23;;;13.83;;
2944;SDS011;1482;51.398;7.128;2023-05-14T01:45:20;14.53;;;13.00;;
2944;SDS011;1482;51.398;7.128;2023-05-14T01:47:49;14.87;;;13.37;;
2944;SDS011;1482;51.398;7.128;2023-05-14T01:50:15;16.10;;;14.60;;
2944;SDS011;1482;51.398;7.128;2023-05-14T01:52:41;15.97;;;14.27;;
2944;SDS011;1482;51.398;7.128;2023-05-14T01:55:07;14.57;;;13.17;;
2944;SDS011;1482;51.398;7.128;2023-05-14T01:57:33;13.83;;;12.53;;
2944;SDS011;1482;51.398;7.128;2023-05-14T01:59:58;15.80;;;14.23;;
2944;SDS011;1482;51.398;7.128;2023-05-14T02:02:24;15.50;;;13.90;;
2944;SDS011;1482;51.398;7.128;2023-05-14T02:04:50;15.53;;;13.90;;
2944;SDS011;1482;51.398;7.128;2023-05-14T02:07:16;20.00;;;15.17;;
2944;SDS011;1482;51.398;7.128;2023-05-14T02:09:41;13.83;;;12.53;;
2944;SDS011;1482;51.398;7.128;2023-05-14T02:12:07;12.90;;;11.80;;
2944;SDS011;1482;51.398;7.128;2023-05-14T02:14:33;12.83;;;11.60;;
2944;SDS011;1482;51.398;7.128;2023-05-14T02:16:58;14.27;;;12.53;;
2944;SDS011;1482;51.398;7.128;2023-05-14T02:19:24;19.13;;;14.07;;
2944;SDS011;1482;51.398;7.128;2023-05-14T02:21:50;15.10;;;13.30;;
2944;SDS011;1482;51.398;7.128;2023-05-14T02:24:15;17.03;;;14.63;;
2944;SDS011;1482;51.398;7.128;2023-05-14T02:26:41;14.63;;;13.20;;
2944;SDS011;1482;51.398;7.128;2023-05-14T02:29:07;14.87;;;13.33;;
2944;SDS011;1482;51.398;7.128;2023-05-14T02:31:32;16.03;;;14.43;;
2944;SDS011;1482;51.398;7.128;2023-05-14T02:34:00;17.70;;;16.10;;
2944;SDS011;1482;51.398;7.128;2023-05-14T02:36:28;17.10;;;13.97;;
2944;SDS011;1482;51.398;7.128;2023-05-14T02:38:53;17.00;;;15.33;;
2944;SDS011;1482;51.398;7.128;2023-05-14T02:41:19;19.27;;;16.50;;
2944;SDS011;1482;51.398;7.128;2023-05-14T02:43:45;19.30;;;17.50;;
2944;SDS011;1482;51.398;7.128;2023-05-14T02:46:11;20.53;;;17.73;;
2944;SDS011;1482;51.398;7.128;2023-05-14T02:48:36;19.70;;;17.83;;
2944;SDS011;1482;51.398;7.128;2023-05-14T02:51:02;19.43;;;17.27;;
2944;SDS011;1482;51.398;7.128;2023-05-14T02:53:27;18.20;;;15.03;;
2944;SDS011;1482;51.398;7.128;2023-05-14T02:55:53;18.77;;;16.97;;
2944;SDS011;1482;51.398;7.128;2023-05-14T02:58:18;18.50;;;16.33;;
2944;SDS011;1482;51.398;7.128;2023-05-14T03:00:44;17.37;;;15.33;;
2944;SDS011;1482;51.398;7.128;2023-05-14T03:03:09;17.80;;;16.03;;
2944;SDS011;1482;51.398;7.128;2023-05-14T03:05:35;17.27;;;15.40;;
2944;SDS011;1482;51.398;7.128;2023-05-14T03:08:00;19.77;;;16.37;;
2944;SDS011;1482;51.398;7.128;2023-05-14T03:10:26;17.97;;;14.57;;
2944;SDS011;1482;51.398;7.128;2023-05-14T03:12:52;16.37;;;14.80;;
2944;SDS011;1482;51.398;7.128;2023-05-14T03:15:17;16.33;;;14.50;;
2944;SDS011;1482;51.398;7.128;2023-05-14T03:17:43;17.87;;;16.10;;
2944;SDS011;1482;51.398;7.128;2023-05-14T03:20:08;19.50;;;17.20;;
2944;SDS011;1482;51.398;7.128;2023-05-14T03:22:35;18.17;;;16.27;;
2944;SDS011;1482;51.398;7.128;2023-05-14T03:25:00;15.97;;;14.37;;
2944;SDS011;1482;51.398;7.128;2023-05-14T03:27:26;17.03;;;15.20;;
2944;SDS011;1482;51.398;7.128;2023-05-14T03:29:51;17.40;;;15.60;;
2944;SDS011;1482;51.398;7.128;2023-05-14T03:32:17;15.60;;;14.00;;
2944;SDS011;1482;51.398;7.128;2023-05-14T03:34:43;20.03;;;16.10;;
2944;SDS011;1482;51.398;7.128;2023-05-14T03:37:08;19.57;;;16.40;;
2944;SDS011;1482;51.398;7.128;2023-05-14T03:39:34;16.40;;;14.80;;
2944;SDS011;1482;51.398;7.128;2023-05-14T03:42:00;19.83;;;17.77;;
2944;SDS011;1482;51.398;7.128;2023-05-14T03:44:25;20.60;;;18.00;;
2944;SDS011;1482;51.398;7.128;2023-05-14T03:46:51;20.57;;;18.47;;
2944;SDS011;1482;51.398;7.128;2023-05-14T03:49:17;22.50;;;20.23;;
2944;SDS011;1482;51.398;7.128;2023-05-14T03:51:42;20.50;;;18.40;;
2944;SDS011;1482;51.398;7.128;2023-05-14T03:54:08;25.23;;;17.00;;
2944;SDS011;1482;51.398;7.128;2023-05-14T03:56:34;22.30;;;20.10;;
2944;SDS011;1482;51.398;7.128;2023-05-14T03:58:59;20.43;;;18.10;;
2944;SDS011;1482;51.398;7.128;2023-05-14T04:01:25;20.03;;;17.93;;
2944;SDS011;1482;51.398;7.128;2023-05-14T04:03:50;20.37;;;18.27;;
2944;SDS011;1482;51.398;7.128;2023-05-14T04:06:16;21.40;;;16.50;;
2944;SDS011;1482;51.398;7.128;2023-05-14T04:08:41;20.10;;;17.30;;
2944;SDS011;1482;51.398;7.128;2023-05-14T04:11:07;23.23;;;20.83;;
2944;SDS011;1482;51.398;7.128;2023-05-14T04:13:32;20.40;;;18.30;;
2944;SDS011;1482;51.398;7.128;2023-05-14T04:15:58;20.03;;;17.30;;
2944;SDS011;1482;51.398;7.128;2023-05-14T04:18:24;18.83;;;16.80;;
2944;SDS011;1482;51.398;7.128;2023-05-14T04:20:49;18.03;;;15.90;;
2944;SDS011;1482;51.398;7.128;2023-05-14T04:23:15;19.60;;;15.80;;
2944;SDS011;1482;51.398;7.128;2023-05-14T04:25:40;15.47;;;13.87;;
2944;SDS011;1482;51.398;7.128;2023-05-14T04:28:06;17.03;;;15.53;;
2944;SDS011;1482;51.398;7.128;2023-05-14T04:30:31;16.23;;;13.33;;
2944;SDS011;1482;51.398;7.128;2023-05-14T04:32:57;14.03;;;12.73;;
2944;SDS011;1482;51.398;7.128;2023-05-14T04:35:23;14.17;;;12.33;;
2944;SDS011;1482;51.398;7.128;2023-05-14T04:37:48;15.40;;;12.33;;
2944;SDS011;1482;51.398;7.128;2023-05-14T04:40:14;13.53;;;12.30;;
2944;SDS011;1482;51.398;7.128;2023-05-14T04:42:43;12.70;;;11.50;;
2944;SDS011;1482;51.398;7.128;2023-05-14T04:45:08;10.80;;;9.67;;
2944;SDS011;1482;51.398;7.128;2023-05-14T04:47:34;10.00;;;8.47;;
2944;SDS011;1482;51.398;7.128;2023-05-14T04:50:00;9.80;;;8.60;;
2944;SDS011;1482;51.398;7.128;2023-05-14T04:52:26;9.53;;;8.33;;
2944;SDS011;1482;51.398;7.128;2023-05-14T04:54:52;11.60;;;8.30;;
2944;SDS011;1482;51.398;7.128;2023-05-14T04:57:18;8.37;;;7.53;;
2944;SDS011;1482;51.398;7.128;2023-05-14T04:59:43;9.07;;;8.33;;
2944;SDS011;1482;51.398;7.128;2023-05-14T05:02:09;10.40;;;8.33;;
2944;SDS011;1482;51.398;7.128;2023-05-14T05:04:34;8.60;;;7.90;;
2944;SDS011;1482;51.398;7.128;2023-05-14T05:07:00;13.53;;;7.80;;
2944;SDS011;1482;51.398;7.128;2023-05-14T05:09:26;8.33;;;7.33;;
2944;SDS011;1482;51.398;7.128;2023-05-14T05:11:51;7.80;;;7.17;;
2944;SDS011;1482;51.398;7.128;2023-05-14T05:14:17;8.27;;;7.57;;
2944;SDS011;1482;51.398;7.128;2023-05-14T05:16:42;8.20;;;7.20;;
2944;SDS011;1482;51.398;7.128;2023-05-14T05:19:08;8.50;;;7.70;;
2944;SDS011;1482;51.398;7.128;2023-05-14T05:21:34;9.10;;;8.27;;
2944;SDS011;1482;51.398;7.128;2023-05-14T05:24:00;9.40;;;8.50;;
2944;SDS011;1482;51.398;7.128;2023-05-14T05:26:25;8.47;;;7.30;;
2944;SDS011;1482;51.398;7.128;2023-05-14T05:28:51;8.77;;;8.00;;
2944;SDS011;1482;51.398;7.128;2023-05-14T05:31:17;9.17;;;8.33;;
2944;SDS011;1482;51.398;7.128;2023-05-14T05:33:43;9.03;;;8.13;;
2944;SDS011;1482;51.398;7.128;2023-05-14T05:36:09;8.80;;;8.10;;
2944;SDS011;1482;51.398;7.128;2023-05-14T05:38:34;7.80;;;7.00;;
2944;SDS011;1482;51.398;7.128;2023-05-14T05:41:00;7.47;;;6.80;;
2944;SDS011;1482;51.398;7.128;2023-05-14T05:43:25;7.50;;;6.80;;
2944;SDS011;1482;51.398;7.128;2023-05-14T05:45:52;6.90;;;6.40;;
2944;SDS011;1482;51.398;7.128;2023-05-14T05:48:18;7.37;;;6.77;;
2944;SDS011;1482;51.398;7.128;2023-05-14T05:50:45;7.60;;;7.00;;
2944;SDS011;1482;51.398;7.128;2023-05-14T05:53:13;7.07;;;6.50;;
2944;SDS011;1482;51.398;7.128;2023-05-14T05:55:40;7.73;;;7.07;;
2944;SDS011;1482;51.398;7.128;2023-05-14T05:58:06;6.43;;;5.83;;
2944;SDS011;1482;51.398;7.128;2023-05-14T06:00:32;6.13;;;5.63;;
2944;SDS011;1482;51.398;7.128;2023-05-14T06:02:57;9.83;;;4.93;;
2944;SDS011;1482;51.398;7.128;2023-05-14T06:05:23;6.50;;;5.90;;
2944;SDS011;1482;51.398;7.128;2023-05-14T06:07:48;5.67;;;5.13;;
2944;SDS011;1482;51.398;7.128;2023-05-14T06:10:14;5.57;;;5.10;;
2944;SDS011;1482;51.398;7.128;2023-05-14T06:12:40;5.13;;;4.73;;
2944;SDS011;1482;51.398;7.128;2023-05-14T06:15:05;7.67;;;6.00;;
2944;SDS011;1482;51.398;7.128;2023-05-14T06:17:31;8.53;;;6.10;;
2944;SDS011;1482;51.398;7.128;2023-05-14T06:19:57;6.97;;;6.37;;
2944;SDS011;1482;51.398;7.128;2023-05-14T06:22:22;5.83;;;5.40;;
2944;SDS011;1482;51.398;7.128;2023-05-14T06:24:48;7.23;;;6.37;;
2944;SDS011;1482;51.398;7.128;2023-05-14T06:27:13;6.83;;;6.30;;
2944;SDS011;1482;51.398;7.128;2023-05-14T06:29:39;7.63;;;7.03;;
2944;SDS011;1482;51.398;7.128;2023-05-14T06:32:05;6.47;;;5.67;;
2944;SDS011;1482;51.398;7.128;2023-05-14T06:34:31;5.77;;;5.27;;
2944;SDS011;1482;51.398;7.128;2023-05-14T06:36:56;6.57;;;6.07;;
2944;SDS011;1482;51.398;7.128;2023-05-14T06:39:22;8.80;;;8.10;;
2944;SDS011;1482;51.398;7.128;2023-05-14T06:41:50;8.47;;;7.80;;
2944;SDS011;1482;51.398;7.128;2023-05-14T06:44:17;6.83;;;6.33;;
2944;SDS011;1482;51.398;7.128;2023-05-14T06:46:43;7.30;;;6.70;;
2944;SDS011;1482;51.398;7.128;2023-05-14T06:49:09;6.80;;;6.37;;
2944;SDS011;1482;51.398;7.128;2023-05-14T06:51:34;5.60;;;5.20;;
2944;SDS011;1482;51.398;7.128;2023-05-14T06:54:00;5.27;;;4.93;;
2944;SDS011;1482;51.398;7.128;2023-05-14T06:56:26;6.00;;;5.60;;
2944;SDS011;1482;51.398;7.128;2023-05-14T06:58:51;6.23;;;4.97;;
2944;SDS011;1482;51.398;7.128;2023-05-14T07:01:17;6.33;;;5.83;;
2944;SDS011;1482;51.398;7.128;2023-05-14T07:03:42;5.73;;;5.33;;
2944;SDS011;1482;51.398;7.128;2023-05-14T07:06:08;8.57;;;4.97;;
2944;SDS011;1482;51.398;7.128;2023-05-14T07:08:33;5.40;;;4.90;;
2944;SDS011;1482;51.398;7.128;2023-05-14T07:11:00;6.20;;;5.03;;
2944;SDS011;1482;51.398;7.128;2023-05-14T07:13:26;5.00;;;4.50;;
2944;SDS011;1482;51.398;7.128;2023-05-14T07:15:52;7.07;;;5.87;;
2944;SDS011;1482;51.398;7.128;2023-05-14T07:18:19;5.83;;;5.33;;
2944;SDS011;1482;51.398;7.128;2023-05-14T07:20:45;7.10;;;6.07;;
2944;SDS011;1482;51.398;7.128;2023-05-14T07:23:11;6.10;;;5.70;;
2944;SDS011;1482;51.398;7.128;2023-05-14T07:25:36;5.97;;;5.53;;
2944;SDS011;1482;51.398;7.128;2023-05-14T07:28:02;6.70;;;6.20;;
2944;SDS011;1482;51.398;7.128;2023-05-14T07:30:27;4.77;;;4.47;;
2944;SDS011;1482;51.398;7.128;2023-05-14T07:32:53;5.67;;;4.43;;
2944;SDS011;1482;51.398;7.128;2023-05-14T07:35:18;6.10;;;5.73;;
2944;SDS011;1482;51.398;7.128;2023-05-14T07:37:44;5.20;;;4.40;;
2944;SDS011;1482;51.398;7.128;2023-05-14T07:40:10;5.17;;;4.77;;
2944;SDS011;1482;51.398;7.128;2023-05-14T07:42:36;5.13;;;4.93;;
2944;SDS011;1482;51.398;7.128;2023-05-14T07:45:01;6.60;;;6.10;;
2944;SDS011;1482;51.398;7.128;2023-05-14T07:47:28;6.53;;;6.13;;
2944;SDS011;1482;51.398;7.128;2023-05-14T07:49:54;6.23;;;5.63;;
2944;SDS011;1482;51.398;7.128;2023-05-14T07:52:20;4.20;;;4.00;;
2944;SDS011;1482;51.398;7.128;2023-05-14T07:54:46;7.93;;;4.33;;
2944;SDS011;1482;51.398;7.128;2023-05-14T07:57:11;6.80;;;4.60;;
2944;SDS011;1482;51.398;7.128;2023-05-14T07:59:37;5.50;;;5.10;;
2944;SDS011;1482;51.398;7.128;2023-05-14T08:02:02;4.30;;;4.10;;
2944;SDS011;1482;51.398;7.128;2023-05-14T08:04:28;5.20;;;4.80;;
2944;SDS011;1482;51.398;7.128;2023-05-14T08:06:53;5.50;;;5.00;;
2944;SDS011;1482;51.398;7.128;2023-05-14T08:09:20;5.13;;;4.80;;
2944;SDS011;1482;51.398;7.128;2023-05-14T08:11:45;4.73;;;4.47;;
2944;SDS011;1482;51.398;7.128;2023-05-14T08:14:11;4.00;;;3.80;;
2944;SDS011;1482;51.398;7.128;2023-05-14T08:16:36;8.67;;;5.27;;
2944;SDS011;1482;51.398;7.128;2023-05-14T08:19:02;4.60;;;4.30;;
2944;SDS011;1482;51.398;7.128;2023-05-14T08:21:28;4.77;;;4.37;;
2944;SDS011;1482;51.398;7.128;2023-05-14T08:23:53;3.53;;;2.53;;
2944;SDS011;1482;51.398;7.128;2023-05-14T08:26:19;3.37;;;3.00;;
2944;SDS011;1482;51.398;7.128;2023-05-14T08:28:45;3.47;;;3.27;;
2944;SDS011;1482;51.398;7.128;2023-05-14T08:31:11;5.17;;;4.80;;
2944;SDS011;1482;51.398;7.128;2023-05-14T08:33:38;4.00;;;3.60;;
2944;SDS011;1482;51.398;7.128;2023-05-14T08:36:04;4.10;;;3.80;;
2944;SDS011;1482;51.398;7.128;2023-05-14T08:38:31;3.13;;;2.83;;
2944;SDS011;1482;51.398;7.128;2023-05-14T08:40:57;3.20;;;2.90;;
2944;SDS011;1482;51.398;7.128;2023-05-14T08:43:26;4.27;;;3.00;;
2944;SDS011;1482;51.398;7.128;2023-05-14T08:46:00;3.20;;;2.90;;
2944;SDS011;1482;51.398;7.128;2023-05-14T08:48:30;7.00;;;2.90;;
2944;SDS011;1482;51.398;7.128;2023-05-14T08:50:58;3.83;;;2.97;;
2944;SDS011;1482;51.398;7.128;2023-05-14T08:53:24;2.83;;;2.33;;
2944;SDS011;1482;51.398;7.128;2023-05-14T08:55:50;2.77;;;2.57;;
2944;SDS011;1482;51.398;7.128;2023-05-14T08:58:17;3.70;;;3.50;;
2944;SDS011;1482;51.398;7.128;2023-05-14T09:00:43;4.00;;;3.70;;
2944;SDS011;1482;51.398;7.128;2023-05-14T09:03:09;3.50;;;3.20;;
2944;SDS011;1482;51.398;7.128;2023-05-14T09:05:36;3.03;;;2.70;;
2944;SDS011;1482;51.398;7.128;2023-05-14T09:08:02;4.40;;;3.37;;
2944;SDS011;1482;51.398;7.128;2023-05-14T09:10:27;2.97;;;2.77;;
2944;SDS011;1482;51.398;7.128;2023-05-14T09:12:53;3.10;;;2.90;;
2944;SDS011;1482;51.398;7.128;2023-05-14T09:15:19;3.90;;;2.97;;
2944;SDS011;1482;51.398;7.128;2023-05-14T09:17:44;3.17;;;2.87;;
2944;SDS011;1482;51.398;7.128;2023-05-14T09:20:11;3.60;;;3.03;;
2944;SDS011;1482;51.398;7.128;2023-05-14T09:22:38;3.20;;;3.00;;
2944;SDS011;1482;51.398;7.128;2023-05-14T09:25:05;3.90;;;3.60;;
2944;SDS011;1482;51.398;7.128;2023-05-14T09:27:33;4.47;;;3.40;;
2944;SDS011;1482;51.398;7.128;2023-05-14T09:30:09;7.23;;;2.70;;
2944;SDS011;1482;51.398;7.128;2023-05-14T09:32:40;3.80;;;3.30;;
2944;SDS011;1482;51.398;7.128;2023-05-14T09:35:23;4.67;;;3.50;;
2944;SDS011;1482;51.398;7.128;2023-05-14T09:37:49;3.57;;;3.37;;
2944;SDS011;1482;51.398;7.128;2023-05-14T09:40:17;3.30;;;3.10;;
2944;SDS011;1482;51.398;7.128;2023-05-14T09:42:44;5.40;;;4.13;;
2944;SDS011;1482;51.398;7.128;2023-05-14T09:45:10;3.90;;;3.60;;
2944;SDS011;1482;51.398;7.128;2023-05-14T09:47:36;3.73;;;3.43;;
2944;SDS011;1482;51.398;7.128;2023-05-14T09:50:03;4.17;;;3.87;;
2944;SDS011;1482;51.398;7.128;2023-05-14T09:52:30;3.83;;;3.53;;
2944;SDS011;1482;51.398;7.128;2023-05-14T09:54:55;5.60;;;3.77;;
2944;SDS011;1482;51.398;7.128;2023-05-14T09:57:21;12.30;;;4.13;;
2944;SDS011;1482;51.398;7.128;2023-05-14T09:59:47;4.30;;;3.80;;
2944;SDS011;1482;51.398;7.128;2023-05-14T10:02:23;6.90;;;3.63;;
2944;SDS011;1482;51.398;7.128;2023-05-14T10:04:50;4.43;;;4.10;;
2944;SDS011;1482;51.398;7.128;2023-05-14T10:07:22;4.50;;;4.10;;
2944;SDS011;1482;51.398;7.128;2023-05-14T10:09:53;4.17;;;3.83;;
2944;SDS011;1482;51.398;7.128;2023-05-14T10:12:23;12.23;;;4.90;;
2944;SDS011;1482;51.398;7.128;2023-05-14T10:14:54;4.93;;;4.63;;
2944;SDS011;1482;51.398;7.128;2023-05-14T10:17:21;4.80;;;4.50;;
2944;SDS011;1482;51.398;7.128;2023-05-14T10:19:52;4.30;;;4.00;;
2944;SDS011;1482;51.398;7.128;2023-05-14T10:22:26;5.07;;;4.77;;
2944;SDS011;1482;51.398;7.128;2023-05-14T10:24:57;4.23;;;3.83;;
2944;SDS011;1482;51.398;7.128;2023-05-14T10:27:23;4.63;;;4.20;;
2944;SDS011;1482;51.398;7.128;2023-05-14T10:29:50;4.27;;;3.97;;
2944;SDS011;1482;51.398;7.128;2023-05-14T10:32:20;5.03;;;4.53;;
2944;SDS011;1482;51.398;7.128;2023-05-14T10:34:48;5.03;;;4.63;;
2944;SDS011;1482;51.398;7.128;2023-05-14T10:37:14;4.53;;;4.23;;
2944;SDS011;1482;51.398;7.128;2023-05-14T10:44:54;4.70;;;4.30;;
2944;SDS011;1482;51.398;7.128;2023-05-14T10:47:23;5.50;;;5.00;;
2944;SDS011;1482;51.398;7.128;2023-05-14T10:49:52;6.03;;;4.40;;
2944;SDS011;1482;51.398;7.128;2023-05-14T10:52:19;4.60;;;4.30;;
2944;SDS011;1482;51.398;7.128;2023-05-14T10:57:22;4.80;;;4.17;;
2944;SDS011;1482;51.398;7.128;2023-05-14T10:59:54;4.50;;;4.10;;
2944;SDS011;1482;51.398;7.128;2023-05-14T11:04:56;4.80;;;4.40;;
2944;SDS011;1482;51.398;7.128;2023-05-14T11:10:00;4.60;;;4.30;;
2944;SDS011;1482;51.398;7.128;2023-05-14T11:12:27;5.70;;;5.20;;
2944;SDS011;1482;51.398;7.128;2023-05-14T11:14:54;4.10;;;3.80;;
2944;SDS011;1482;51.398;7.128;2023-05-14T11:17:22;5.17;;;4.67;;
2944;SDS011;1482;51.398;7.128;2023-05-14T11:19:49;4.80;;;4.03;;
2944;SDS011;1482;51.398;7.128;2023-05-14T11:22:15;4.70;;;4.30;;
2944;SDS011;1482;51.398;7.128;2023-05-14T11:24:40;6.53;;;3.87;;
2944;SDS011;1482;51.398;7.128;2023-05-14T11:27:06;4.80;;;4.37;;
2944;SDS011;1482;51.398;7.128;2023-05-14T11:29:33;4.77;;;4.40;;
2944;SDS011;1482;51.398;7.128;2023-05-14T11:32:00;7.80;;;4.37;;
2944;SDS011;1482;51.398;7.128;2023-05-14T11:34:27;3.80;;;3.60;;
2944;SDS011;1482;51.398;7.128;2023-05-14T11:36:52;4.00;;;3.70;;
2944;SDS011;1482;51.398;7.128;2023-05-14T11:39:18;4.30;;;3.90;;
2944;SDS011;1482;51.398;7.128;2023-05-14T11:41:44;4.90;;;4.03;;
2944;SDS011;1482;51.398;7.128;2023-05-14T11:44:10;4.07;;;3.77;;
2944;SDS011;1482;51.398;7.128;2023-05-14T11:46:35;5.50;;;4.80;;
2944;SDS011;1482;51.398;7.128;2023-05-14T11:49:04;5.20;;;4.80;;
2944;SDS011;1482;51.398;7.128;2023-05-14T11:51:30;5.50;;;5.00;;
2944;SDS011;1482;51.398;7.128;2023-05-14T11:53:56;4.20;;;3.80;;
2944;SDS011;1482;51.398;7.128;2023-05-14T11:56:23;5.00;;;4.60;;
2944;SDS011;1482;51.398;7.128;2023-05-14T11:58:48;4.13;;;3.83;;
2944;SDS011;1482;51.398;7.128;2023-05-14T12:01:20;4.10;;;3.80;;
2944;SDS011;1482;51.398;7.128;2023-05-14T12:03:46;4.53;;;4.13;;
2944;SDS011;1482;51.398;7.128;2023-05-14T12:06:11;5.60;;;4.23;;
2944;SDS011;1482;51.398;7.128;2023-05-14T12:08:37;4.40;;;4.00;;
2944;SDS011;1482;51.398;7.128;2023-05-14T12:11:02;4.00;;;3.70;;
2944;SDS011;1482;51.398;7.128;2023-05-14T12:13:29;4.57;;;4.17;;
2944;SDS011;1482;51.398;7.128;2023-05-14T12:15:56;5.10;;;4.03;;
2944;SDS011;1482;51.398;7.128;2023-05-14T12:18:27;4.70;;;3.83;;
2944;SDS011;1482;51.398;7.128;2023-05-14T12:20:54;4.60;;;4.30;;
2944;SDS011;1482;51.398;7.128;2023-05-14T12:23:29;4.40;;;4.00;;
2944;SDS011;1482;51.398;7.128;2023-05-14T12:26:02;4.37;;;3.97;;
2944;SDS011;1482;51.398;7.128;2023-05-14T12:28:30;8.97;;;5.20;;
2944;SDS011;1482;51.398;7.128;2023-05-14T12:30:56;4.87;;;3.90;;
2944;SDS011;1482;51.398;7.128;2023-05-14T12:33:23;4.70;;;4.30;;
2944;SDS011;1482;51.398;7.128;2023-05-14T12:35:50;4.67;;;4.27;;
2944;SDS011;1482;51.398;7.128;2023-05-14T12:38:17;4.80;;;4.40;;
2944;SDS011;1482;51.398;7.128;2023-05-14T12:40:43;4.60;;;4.27;;
2944;SDS011;1482;51.398;7.128;2023-05-14T12:43:08;5.40;;;4.20;;
2944;SDS011;1482;51.398;7.128;2023-05-14T12:45:34;6.17;;;5.67;;
2944;SDS011;1482;51.398;7.128;2023-05-14T12:48:00;8.70;;;3.90;;
2944;SDS011;1482;51.398;7.128;2023-05-14T12:50:25;4.67;;;4.27;;
2944;SDS011;1482;51.398;7.128;2023-05-14T12:52:51;6.83;;;4.60;;
2944;SDS011;1482;51.398;7.128;2023-05-14T12:55:16;5.33;;;4.23;;
2944;SDS011;1482;51.398;7.128;2023-05-14T12:57:42;4.30;;;4.00;;
2944;SDS011;1482;51.398;7.128;2023-05-14T13:00:08;4.77;;;3.97;;
2944;SDS011;1482;51.398;7.128;2023-05-14T13:02:35;5.07;;;4.60;;
2944;SDS011;1482;51.398;7.128;2023-05-14T13:05:00;7.53;;;4.67;;
2944;SDS011;1482;51.398;7.128;2023-05-14T13:07:29;4.67;;;4.33;;
2944;SDS011;1482;51.398;7.128;2023-05-14T13:09:55;4.53;;;4.23;;
2944;SDS011;1482;51.398;7.128;2023-05-14T13:12:24;4.03;;;3.73;;
2944;SDS011;1482;51.398;7.128;2023-05-14T13:14:51;4.03;;;3.80;;
2944;SDS011;1482;51.398;7.128;2023-05-14T13:17:16;4.50;;;4.10;;
2944;SDS011;1482;51.398;7.128;2023-05-14T13:19:42;4.47;;;4.17;;
2944;SDS011;1482;51.398;7.128;2023-05-14T13:22:08;3.70;;;3.40;;
2944;SDS011;1482;51.398;7.128;2023-05-14T13:24:33;4.60;;;4.20;;
2944;SDS011;1482;51.398;7.128;2023-05-14T13:26:59;4.83;;;3.30;;
2944;SDS011;1482;51.398;7.128;2023-05-14T13:29:25;3.60;;;3.30;;
2944;SDS011;1482;51.398;7.128;2023-05-14T13:31:53;3.70;;;3.50;;
2944;SDS011;1482;51.398;7.128;2023-05-14T13:34:18;3.83;;;3.20;;
2944;SDS011;1482;51.398;7.128;2023-05-14T13:36:44;4.23;;;3.30;;
2944;SDS011;1482;51.398;7.128;2023-05-14T13:39:11;4.30;;;3.90;;
2944;SDS011;1482;51.398;7.128;2023-05-14T13:41:37;3.60;;;3.30;;
2944;SDS011;1482;51.398;7.128;2023-05-14T13:44:03;3.40;;;3.10;;
2944;SDS011;1482;51.398;7.128;2023-05-14T13:46:28;5.97;;;3.17;;
2944;SDS011;1482;51.398;7.128;2023-05-14T13:48:54;4.63;;;3.57;;
2944;SDS011;1482;51.398;7.128;2023-05-14T13:51:21;3.47;;;3.17;;
2944;SDS011;1482;51.398;7.128;2023-05-14T13:53:47;3.30;;;3.10;;
2944;SDS011;1482;51.398;7.128;2023-05-14T13:56:12;3.13;;;2.93;;
2944;SDS011;1482;51.398;7.128;2023-05-14T13:58:38;3.23;;;3.03;;
2944;SDS011;1482;51.398;7.128;2023-05-14T14:01:03;9.57;;;3.70;;
2944;SDS011;1482;51.398;7.128;2023-05-14T14:03:29;3.53;;;3.23;;
2944;SDS011;1482;51.398;7.128;2023-05-14T14:05:55;3.17;;;2.97;;
2944;SDS011;1482;51.398;7.128;2023-05-14T14:08:20;3.73;;;3.40;;
2944;SDS011;1482;51.398;7.128;2023-05-14T14:10:46;3.20;;;3.00;;
2944;SDS011;1482;51.398;7.128;2023-05-14T14:13:11;2.80;;;2.60;;
2944;SDS011;1482;51.398;7.128;2023-05-14T14:15:37;3.97;;;3.60;;
2944;SDS011;1482;51.398;7.128;2023-05-14T14:18:02;3.30;;;3.07;;
2944;SDS011;1482;51.398;7.128;2023-05-14T14:20:28;3.70;;;3.00;;
2944;SDS011;1482;51.398;7.128;2023-05-14T14:22:55;3.47;;;2.63;;
2944;SDS011;1482;51.398;7.128;2023-05-14T14:25:20;2.70;;;2.40;;
2944;SDS011;1482;51.398;7.128;2023-05-14T14:27:46;3.30;;;3.10;;
2944;SDS011;1482;51.398;7.128;2023-05-14T14:30:12;3.37;;;3.10;;
2944;SDS011;1482;51.398;7.128;2023-05-14T14:32:42;4.03;;;2.77;;
2944;SDS011;1482;51.398;7.128;2023-05-14T14:35:09;4.83;;;3.33;;
2944;SDS011;1482;51.398;7.128;2023-05-14T14:37:37;2.33;;;2.23;;
2944;SDS011;1482;51.398;7.128;2023-05-14T14:40:03;4.60;;;3.37;;
2944;SDS011;1482;51.398;7.128;2023-05-14T14:42:31;3.10;;;2.90;;
2944;SDS011;1482;51.398;7.128;2023-05-14T14:44:58;4.10;;;3.20;;
2944;SDS011;1482;51.398;7.128;2023-05-14T14:47:23;3.23;;;3.03;;
2944;SDS011;1482;51.398;7.128;2023-05-14T14:49:49;3.13;;;2.93;;
2944;SDS011;1482;51.398;7.128;2023-05-14T14:52:14;3.43;;;2.70;;
2944;SDS011;1482;51.398;7.128;2023-05-14T14:54:40;3.17;;;2.87;;
2944;SDS011;1482;51.398;7.128;2023-05-14T14:57:05;3.30;;;3.07;;
2944;SDS011;1482;51.398;7.128;2023-05-14T14:59:31;3.20;;;2.90;;
2944;SDS011;1482;51.398;7.128;2023-05-14T15:01:56;5.80;;;3.27;;
2944;SDS011;1482;51.398;7.128;2023-05-14T15:04:22;2.90;;;2.77;;
2944;SDS011;1482;51.398;7.128;2023-05-14T15:06:48;4.30;;;3.17;;
2944;SDS011;1482;51.398;7.128;2023-05-14T15:09:13;3.80;;;3.30;;
2944;SDS011;1482;51.398;7.128;2023-05-14T15:11:39;3.23;;;3.03;;
2944;SDS011;1482;51.398;7.128;2023-05-14T15:14:04;3.33;;;3.03;;
2944;SDS011;1482;51.398;7.128;2023-05-14T15:16:30;3.47;;;3.27;;
2944;SDS011;1482;51.398;7.128;2023-05-14T15:18:55;4.10;;;3.20;;